sensor_id;sensor_type;location;lat;lon;timestamp;temperature;humidity
3736;DHT22;1883;48.202;16.310;2023-05-23T01:15:16;18.40;69.80
3736;DHT22;1883;48.202;16.310;2023-05-23T01:17:50;18.40;69.70
3736;DHT22;1883;48.202;16.310;2023-05-23T01:20:21;18.40;69.60
3736;DHT22;1883;48.202;16.310;2023-05-23T01:23:03;18.40;69.70
3736;DHT22;1883;48.202;16.310;2023-05-23T01:25:48;18.30;69.60
3736;DHT22;1883;48.202;16.310;2023-05-23T01:28:21;18.20;69.50
3736;DHT22;1883;48.202;16.310;2023-05-23T01:30:51;18.20;69.40
3736;DHT22;1883;48.202;16.310;2023-05-23T01:33:19;18.20;69.30
3736;DHT22;1883;48.202;16.310;2023-05-23T01:35:48;18.20;69.40
3736;DHT22;1883;48.202;16.310;2023-05-23T01:38:16;18.20;69.40
3736;DHT22;1883;48.202;16.310;2023-05-23T01:40:43;18.20;69.30
3736;DHT22;1883;48.202;16.310;2023-05-23T01:43:10;18.20;69.20
3736;DHT22;1883;48.202;16.310;2023-05-23T01:45:38;18.10;68.90
3736;DHT22;1883;48.202;16.310;2023-05-23T01:48:07;18.10;69.00
3736;DHT22;1883;48.202;16.310;2023-05-23T01:50:55;18.20;69.00
3736;DHT22;1883;48.202;16.310;2023-05-23T01:53:44;18.10;69.00
3736;DHT22;1883;48.202;16.310;2023-05-23T01:56:30;18.10;69.00
3736;DHT22;1883;48.202;16.310;2023-05-23T01:58:57;18.00;69.00
3736;DHT22;1883;48.202;16.310;2023-05-23T02:05:09;17.90;68.70
3736;DHT22;1883;48.202;16.310;2023-05-23T02:08:12;17.90;68.60
3736;DHT22;1883;48.202;16.310;2023-05-23T02:11:25;17.80;68.50
3736;DHT22;1883;48.202;16.310;2023-05-23T02:14:20;17.70;68.40
3736;DHT22;1883;48.202;16.310;2023-05-23T02:17:03;17.80;68.20
3736;DHT22;1883;48.202;16.310;2023-05-23T02:19:51;17.80;68.20
3736;DHT22;1883;48.202;16.310;2023-05-23T02:22:42;17.80;68.10
3736;DHT22;1883;48.202;16.310;2023-05-23T02:25:09;17.80;68.00
3736;DHT22;1883;48.202;16.310;2023-05-23T02:27:36;17.80;68.00
3736;DHT22;1883;48.202;16.310;2023-05-23T02:30:04;17.70;68.00
3736;DHT22;1883;48.202;16.310;2023-05-23T02:32:31;17.70;68.00
3736;DHT22;1883;48.202;16.310;2023-05-23T02:34:58;17.60;67.80
3736;DHT22;1883;48.202;16.310;2023-05-23T02:37:25;17.60;67.80
3736;DHT22;1883;48.202;16.310;2023-05-23T02:39:54;17.60;67.70
3736;DHT22;1883;48.202;16.310;2023-05-23T02:42:21;17.50;67.70
3736;DHT22;1883;48.202;16.310;2023-05-23T02:44:48;17.50;67.70
3736;DHT22;1883;48.202;16.310;2023-05-23T02:47:15;17.50;67.50
3736;DHT22;1883;48.202;16.310;2023-05-23T02:49:42;17.40;67.50
3736;DHT22;1883;48.202;16.310;2023-05-23T02:52:09;17.40;67.40
3736;DHT22;1883;48.202;16.310;2023-05-23T02:54:36;17.20;67.20
3736;DHT22;1883;48.202;16.310;2023-05-23T02:57:05;17.20;67.10
3736;DHT22;1883;48.202;16.310;2023-05-23T02:59:32;17.30;66.90
3736;DHT22;1883;48.202;16.310;2023-05-23T03:01:59;17.30;67.00
3736;DHT22;1883;48.202;16.310;2023-05-23T03:04:26;17.30;66.80
3736;DHT22;1883;48.202;16.310;2023-05-23T03:06:54;17.40;66.70
3736;DHT22;1883;48.202;16.310;2023-05-23T03:09:21;17.30;66.80
3736;DHT22;1883;48.202;16.310;2023-05-23T03:11:48;17.30;66.90
3736;DHT22;1883;48.202;16.310;2023-05-23T03:14:33;17.20;66.80
3736;DHT22;1883;48.202;16.310;2023-05-23T03:17:01;17.10;66.30
3736;DHT22;1883;48.202;16.310;2023-05-23T03:19:42;17.20;66.40
3736;DHT22;1883;48.202;16.310;2023-05-23T03:22:09;17.10;66.50
3736;DHT22;1883;48.202;16.310;2023-05-23T03:24:36;17.10;66.30
3736;DHT22;1883;48.202;16.310;2023-05-23T03:27:04;17.20;66.10
3736;DHT22;1883;48.202;16.310;2023-05-23T03:29:32;17.10;66.10
3736;DHT22;1883;48.202;16.310;2023-05-23T03:31:59;17.20;66.20
3736;DHT22;1883;48.202;16.310;2023-05-23T03:34:26;17.10;66.10
3736;DHT22;1883;48.202;16.310;2023-05-23T03:37:14;17.10;66.10
3736;DHT22;1883;48.202;16.310;2023-05-23T03:39:55;17.00;66.20
3736;DHT22;1883;48.202;16.310;2023-05-23T03:42:22;17.00;66.10
3736;DHT22;1883;48.202;16.310;2023-05-23T03:44:51;16.90;66.10
3736;DHT22;1883;48.202;16.310;2023-05-23T03:47:17;17.00;65.90
3736;DHT22;1883;48.202;16.310;2023-05-23T03:49:44;17.00;65.70
3736;DHT22;1883;48.202;16.310;2023-05-23T03:52:11;17.10;65.70
3736;DHT22;1883;48.202;16.310;2023-05-23T03:54:38;17.10;65.80
3736;DHT22;1883;48.202;16.310;2023-05-23T03:57:06;17.20;65.70
3736;DHT22;1883;48.202;16.310;2023-05-23T03:59:41;17.20;65.60
3736;DHT22;1883;48.202;16.310;2023-05-23T16:38:53;18.10;52.90
3736;DHT22;1883;48.202;16.310;2023-05-23T16:41:36;18.00;52.60
3736;DHT22;1883;48.202;16.310;2023-05-23T16:44:18;18.20;52.60
3736;DHT22;1883;48.202;16.310;2023-05-23T16:46:47;18.00;52.30
3736;DHT22;1883;48.202;16.310;2023-05-23T16:49:40;18.20;52.60
3736;DHT22;1883;48.202;16.310;2023-05-23T16:52:22;18.10;52.70
3736;DHT22;1883;48.202;16.310;2023-05-23T16:55:08;18.10;52.80
3736;DHT22;1883;48.202;16.310;2023-05-23T16:57:54;18.20;52.90
3736;DHT22;1883;48.202;16.310;2023-05-23T17:00:50;18.00;53.00
3736;DHT22;1883;48.202;16.310;2023-05-23T17:03:44;18.00;53.00
3736;DHT22;1883;48.202;16.310;2023-05-23T17:06:44;18.10;53.10
3736;DHT22;1883;48.202;16.310;2023-05-23T17:09:35;18.20;53.20
3736;DHT22;1883;48.202;16.310;2023-05-23T17:48:14;18.50;53.90
3736;DHT22;1883;48.202;16.310;2023-05-23T17:50:55;18.50;54.40
3736;DHT22;1883;48.202;16.310;2023-05-23T21:45:15;17.20;53.30
3736;DHT22;1883;48.202;16.310;2023-05-23T21:48:04;17.20;53.20
3736;DHT22;1883;48.202;16.310;2023-05-23T21:51:26;17.20;53.10
3736;DHT22;1883;48.202;16.310;2023-05-23T21:54:16;17.20;53.10
3736;DHT22;1883;48.202;16.310;2023-05-23T21:57:01;17.20;53.10
3736;DHT22;1883;48.202;16.310;2023-05-23T22:43:41;16.90;53.40
3736;DHT22;1883;48.202;16.310;2023-05-23T22:46:32;17.00;53.50
3736;DHT22;1883;48.202;16.310;2023-05-23T22:49:14;16.90;53.60
3736;DHT22;1883;48.202;16.310;2023-05-23T22:51:43;16.90;53.60
3736;DHT22;1883;48.202;16.310;2023-05-23T22:54:25;16.90;53.60
3736;DHT22;1883;48.202;16.310;2023-05-23T22:56:53;16.90;53.70
3736;DHT22;1883;48.202;16.310;2023-05-23T23:06:08;16.80;55.00
3736;DHT22;1883;48.202;16.310;2023-05-23T23:08:50;16.80;55.40
3736;DHT22;1883;48.202;16.310;2023-05-23T23:11:21;16.90;55.60
3736;DHT22;1883;48.202;16.310;2023-05-23T23:14:57;16.90;55.60
3736;DHT22;1883;48.202;16.310;2023-05-23T23:17:59;16.90;55.50
3736;DHT22;1883;48.202;16.310;2023-05-23T23:20:53;16.80;55.40
3736;DHT22;1883;48.202;16.310;2023-05-23T23:23:37;16.80;55.50
3736;DHT22;1883;48.202;16.310;2023-05-23T23:26:05;16.70;55.60
3736;DHT22;1883;48.202;16.310;2023-05-23T23:28:32;16.80;55.80
3736;DHT22;1883;48.202;16.310;2023-05-23T23:30:59;16.80;56.10
3736;DHT22;1883;48.202;16.310;2023-05-23T23:33:42;16.70;56.30
3736;DHT22;1883;48.202;16.310;2023-05-23T23:36:30;16.70;56.70
3736;DHT22;1883;48.202;16.310;2023-05-23T23:42:11;16.70;57.30
3736;DHT22;1883;48.202;16.310;2023-05-23T23:44:38;16.70;57.60
3736;DHT22;1883;48.202;16.310;2023-05-23T23:47:05;16.70;57.90
3736;DHT22;1883;48.202;16.310;2023-05-23T23:49:32;16.60;58.50
3736;DHT22;1883;48.202;16.310;2023-05-23T23:51:59;16.70;58.70
3736;DHT22;1883;48.202;16.310;2023-05-23T23:54:26;16.60;58.60
3736;DHT22;1883;48.202;16.310;2023-05-23T23:56:53;16.60;58.70
3736;DHT22;1883;48.202;16.310;2023-05-23T23:59:21;16.60;58.80
